sensor_id;sensor_type;location;lat;lon;timestamp;temperature;humidity
25410;DHT22;13339;50.840;4.346;2024-02-23T00:01:31;8.60;99.90
25410;DHT22;13339;50.840;4.346;2024-02-23T00:03:56;8.60;99.90
25410;DHT22;13339;50.840;4.346;2024-02-23T00:06:22;8.60;99.90
25410;DHT22;13339;50.840;4.346;2024-02-23T00:08:53;8.50;99.90
25410;DHT22;13339;50.840;4.346;2024-02-23T00:11:20;8.50;99.90
25410;DHT22;13339;50.840;4.346;2024-02-23T00:13:46;8.40;99.90
25410;DHT22;13339;50.840;4.346;2024-02-23T00:16:12;8.50;99.90
25410;DHT22;13339;50.840;4.346;2024-02-23T00:18:38;8.40;99.90
25410;DHT22;13339;50.840;4.346;2024-02-23T00:21:04;8.40;99.90
25410;DHT22;13339;50.840;4.346;2024-02-23T00:23:30;8.40;99.90
25410;DHT22;13339;50.840;4.346;2024-02-23T00:25:55;8.50;99.90
25410;DHT22;13339;50.840;4.346;2024-02-23T00:28:21;8.50;99.90
25410;DHT22;13339;50.840;4.346;2024-02-23T00:30:47;8.30;99.90
25410;DHT22;13339;50.840;4.346;2024-02-23T00:33:12;8.20;99.90
25410;DHT22;13339;50.840;4.346;2024-02-23T00:35:38;8.20;99.90
25410;DHT22;13339;50.840;4.346;2024-02-23T00:38:04;8.30;99.90
25410;DHT22;13339;50.840;4.346;2024-02-23T00:40:29;8.30;99.90
25410;DHT22;13339;50.840;4.346;2024-02-23T00:42:55;8.30;99.90
25410;DHT22;13339;50.840;4.346;2024-02-23T00:45:21;8.20;99.90
25410;DHT22;13339;50.840;4.346;2024-02-23T00:47:47;8.30;99.90
25410;DHT22;13339;50.840;4.346;2024-02-23T00:50:13;8.10;99.90
25410;DHT22;13339;50.840;4.346;2024-02-23T00:52:39;8.10;99.90
25410;DHT22;13339;50.840;4.346;2024-02-23T00:55:06;8.10;99.90
25410;DHT22;13339;50.840;4.346;2024-02-23T00:57:34;7.90;99.90
25410;DHT22;13339;50.840;4.346;2024-02-23T00:59:59;8.00;99.90
25410;DHT22;13339;50.840;4.346;2024-02-23T01:02:25;8.00;99.90
25410;DHT22;13339;50.840;4.346;2024-02-23T01:04:50;8.00;99.90
25410;DHT22;13339;50.840;4.346;2024-02-23T01:07:22;8.10;99.90
25410;DHT22;13339;50.840;4.346;2024-02-23T01:09:47;8.10;99.90
25410;DHT22;13339;50.840;4.346;2024-02-23T01:12:13;8.00;99.90
25410;DHT22;13339;50.840;4.346;2024-02-23T01:14:39;8.00;99.90
25410;DHT22;13339;50.840;4.346;2024-02-23T01:17:04;8.00;99.90
25410;DHT22;13339;50.840;4.346;2024-02-23T01:19:30;8.00;99.90
25410;DHT22;13339;50.840;4.346;2024-02-23T01:21:55;7.90;99.90
25410;DHT22;13339;50.840;4.346;2024-02-23T01:24:25;7.90;99.90
25410;DHT22;13339;50.840;4.346;2024-02-23T01:26:53;7.90;99.90
25410;DHT22;13339;50.840;4.346;2024-02-23T01:29:20;8.00;99.90
25410;DHT22;13339;50.840;4.346;2024-02-23T01:31:46;7.90;99.90
25410;DHT22;13339;50.840;4.346;2024-02-23T01:34:11;7.80;99.90
25410;DHT22;13339;50.840;4.346;2024-02-23T01:36:37;7.90;99.90
25410;DHT22;13339;50.840;4.346;2024-02-23T01:39:04;8.00;99.90
25410;DHT22;13339;50.840;4.346;2024-02-23T01:41:30;8.00;99.90
25410;DHT22;13339;50.840;4.346;2024-02-23T01:43:55;7.90;99.90
25410;DHT22;13339;50.840;4.346;2024-02-23T01:46:21;7.90;99.90
25410;DHT22;13339;50.840;4.346;2024-02-23T01:48:47;7.90;99.90
25410;DHT22;13339;50.840;4.346;2024-02-23T01:51:13;8.00;99.90
25410;DHT22;13339;50.840;4.346;2024-02-23T01:53:39;8.00;99.90
25410;DHT22;13339;50.840;4.346;2024-02-23T01:56:06;8.10;99.90
25410;DHT22;13339;50.840;4.346;2024-02-23T01:58:33;8.10;99.90
25410;DHT22;13339;50.840;4.346;2024-02-23T02:01:00;8.00;99.90
25410;DHT22;13339;50.840;4.346;2024-02-23T02:03:26;8.10;99.90
25410;DHT22;13339;50.840;4.346;2024-02-23T02:05:53;8.10;99.90
25410;DHT22;13339;50.840;4.346;2024-02-23T02:08:19;8.20;99.90
25410;DHT22;13339;50.840;4.346;2024-02-23T02:10:45;8.20;99.90
25410;DHT22;13339;50.840;4.346;2024-02-23T02:13:12;8.30;99.90
25410;DHT22;13339;50.840;4.346;2024-02-23T02:15:38;8.40;99.90
25410;DHT22;13339;50.840;4.346;2024-02-23T02:18:04;8.40;99.90
25410;DHT22;13339;50.840;4.346;2024-02-23T02:20:32;8.60;99.90
25410;DHT22;13339;50.840;4.346;2024-02-23T02:22:58;8.60;99.90
25410;DHT22;13339;50.840;4.346;2024-02-23T02:25:24;8.60;99.90
25410;DHT22;13339;50.840;4.346;2024-02-23T02:27:50;8.40;99.90
25410;DHT22;13339;50.840;4.346;2024-02-23T02:30:15;8.40;99.90
25410;DHT22;13339;50.840;4.346;2024-02-23T02:32:41;8.50;99.90
25410;DHT22;13339;50.840;4.346;2024-02-23T02:35:07;8.50;99.90
25410;DHT22;13339;50.840;4.346;2024-02-23T02:37:33;8.50;99.90
25410;DHT22;13339;50.840;4.346;2024-02-23T02:39:59;8.50;99.90
25410;DHT22;13339;50.840;4.346;2024-02-23T02:42:25;8.50;99.90
25410;DHT22;13339;50.840;4.346;2024-02-23T02:44:51;8.60;99.90
25410;DHT22;13339;50.840;4.346;2024-02-23T02:47:17;8.60;99.90
25410;DHT22;13339;50.840;4.346;2024-02-23T02:49:43;8.60;99.90
25410;DHT22;13339;50.840;4.346;2024-02-23T02:52:08;8.50;99.90
25410;DHT22;13339;50.840;4.346;2024-02-23T02:54:34;8.50;99.90
25410;DHT22;13339;50.840;4.346;2024-02-23T02:57:00;8.50;99.90
25410;DHT22;13339;50.840;4.346;2024-02-23T02:59:25;8.40;99.90
25410;DHT22;13339;50.840;4.346;2024-02-23T03:01:51;8.50;99.90
25410;DHT22;13339;50.840;4.346;2024-02-23T03:04:16;8.60;99.90
25410;DHT22;13339;50.840;4.346;2024-02-23T03:06:42;8.50;99.90
25410;DHT22;13339;50.840;4.346;2024-02-23T03:09:08;8.50;99.90
25410;DHT22;13339;50.840;4.346;2024-02-23T03:11:33;8.40;99.90
25410;DHT22;13339;50.840;4.346;2024-02-23T03:13:59;8.40;99.90
25410;DHT22;13339;50.840;4.346;2024-02-23T03:16:25;8.40;99.90
25410;DHT22;13339;50.840;4.346;2024-02-23T03:18:55;8.40;99.90
25410;DHT22;13339;50.840;4.346;2024-02-23T03:21:21;8.50;99.90
25410;DHT22;13339;50.840;4.346;2024-02-23T03:23:47;8.40;99.90
25410;DHT22;13339;50.840;4.346;2024-02-23T03:26:12;8.30;99.90
25410;DHT22;13339;50.840;4.346;2024-02-23T03:28:38;8.30;99.90
25410;DHT22;13339;50.840;4.346;2024-02-23T03:31:03;8.40;99.90
25410;DHT22;13339;50.840;4.346;2024-02-23T03:33:29;8.20;99.90
25410;DHT22;13339;50.840;4.346;2024-02-23T03:35:54;8.20;99.90
25410;DHT22;13339;50.840;4.346;2024-02-23T03:38:20;8.40;99.90
25410;DHT22;13339;50.840;4.346;2024-02-23T03:40:46;8.50;99.90
25410;DHT22;13339;50.840;4.346;2024-02-23T03:43:12;8.40;99.90
25410;DHT22;13339;50.840;4.346;2024-02-23T03:45:37;8.40;99.90
25410;DHT22;13339;50.840;4.346;2024-02-23T03:48:04;8.30;99.90
25410;DHT22;13339;50.840;4.346;2024-02-23T03:50:30;8.30;99.90
25410;DHT22;13339;50.840;4.346;2024-02-23T03:52:56;8.40;99.90
25410;DHT22;13339;50.840;4.346;2024-02-23T03:55:22;8.40;99.90
25410;DHT22;13339;50.840;4.346;2024-02-23T03:57:48;8.40;99.90
25410;DHT22;13339;50.840;4.346;2024-02-23T04:00:14;8.50;99.90
25410;DHT22;13339;50.840;4.346;2024-02-23T04:02:39;8.40;99.90
25410;DHT22;13339;50.840;4.346;2024-02-23T04:05:06;8.50;99.90
25410;DHT22;13339;50.840;4.346;2024-02-23T04:07:32;8.40;99.90
25410;DHT22;13339;50.840;4.346;2024-02-23T04:09:57;8.30;99.90
25410;DHT22;13339;50.840;4.346;2024-02-23T04:12:23;8.40;99.90
25410;DHT22;13339;50.840;4.346;2024-02-23T04:14:49;8.40;99.90
25410;DHT22;13339;50.840;4.346;2024-02-23T04:17:15;8.50;99.90
25410;DHT22;13339;50.840;4.346;2024-02-23T04:19:42;8.50;99.90
25410;DHT22;13339;50.840;4.346;2024-02-23T04:22:09;8.50;99.90
25410;DHT22;13339;50.840;4.346;2024-02-23T04:24:37;8.40;99.90
25410;DHT22;13339;50.840;4.346;2024-02-23T04:27:04;8.40;99.90
25410;DHT22;13339;50.840;4.346;2024-02-23T04:29:30;8.50;99.90
25410;DHT22;13339;50.840;4.346;2024-02-23T04:31:55;8.60;99.90
25410;DHT22;13339;50.840;4.346;2024-02-23T04:34:21;8.50;99.90
25410;DHT22;13339;50.840;4.346;2024-02-23T04:36:47;8.60;99.90
25410;DHT22;13339;50.840;4.346;2024-02-23T04:39:12;8.70;99.90
25410;DHT22;13339;50.840;4.346;2024-02-23T04:41:38;8.70;99.90
25410;DHT22;13339;50.840;4.346;2024-02-23T04:44:03;8.60;99.90
25410;DHT22;13339;50.840;4.346;2024-02-23T04:46:30;8.60;99.90
25410;DHT22;13339;50.840;4.346;2024-02-23T04:48:56;8.70;99.90
25410;DHT22;13339;50.840;4.346;2024-02-23T04:51:22;8.70;99.90
25410;DHT22;13339;50.840;4.346;2024-02-23T04:53:49;8.70;99.90
25410;DHT22;13339;50.840;4.346;2024-02-23T04:56:14;8.70;99.90
25410;DHT22;13339;50.840;4.346;2024-02-23T04:58:40;8.60;99.90
25410;DHT22;13339;50.840;4.346;2024-02-23T05:01:08;8.60;99.90
25410;DHT22;13339;50.840;4.346;2024-02-23T05:03:34;8.70;99.90
25410;DHT22;13339;50.840;4.346;2024-02-23T05:05:59;8.70;99.90
25410;DHT22;13339;50.840;4.346;2024-02-23T05:08:25;8.80;99.90
25410;DHT22;13339;50.840;4.346;2024-02-23T05:10:52;8.70;99.90
25410;DHT22;13339;50.840;4.346;2024-02-23T05:13:18;8.60;99.90
25410;DHT22;13339;50.840;4.346;2024-02-23T05:15:44;8.70;99.90
25410;DHT22;13339;50.840;4.346;2024-02-23T05:18:10;8.80;99.90
25410;DHT22;13339;50.840;4.346;2024-02-23T05:20:35;8.90;99.90
25410;DHT22;13339;50.840;4.346;2024-02-23T05:23:01;8.90;99.90
25410;DHT22;13339;50.840;4.346;2024-02-23T05:25:27;8.80;99.90
25410;DHT22;13339;50.840;4.346;2024-02-23T05:27:53;8.70;99.90
25410;DHT22;13339;50.840;4.346;2024-02-23T05:30:19;8.50;99.90
25410;DHT22;13339;50.840;4.346;2024-02-23T05:32:44;8.60;99.90
25410;DHT22;13339;50.840;4.346;2024-02-23T05:35:10;8.50;99.90
25410;DHT22;13339;50.840;4.346;2024-02-23T05:37:36;8.60;99.90
25410;DHT22;13339;50.840;4.346;2024-02-23T05:40:03;8.70;99.90
25410;DHT22;13339;50.840;4.346;2024-02-23T05:42:36;8.50;99.90
25410;DHT22;13339;50.840;4.346;2024-02-23T05:45:02;8.40;99.90
25410;DHT22;13339;50.840;4.346;2024-02-23T05:47:32;8.30;99.90
25410;DHT22;13339;50.840;4.346;2024-02-23T05:49:58;8.30;99.90
25410;DHT22;13339;50.840;4.346;2024-02-23T05:52:24;8.30;99.90
25410;DHT22;13339;50.840;4.346;2024-02-23T05:54:49;8.30;99.90
25410;DHT22;13339;50.840;4.346;2024-02-23T05:57:17;8.30;99.90
25410;DHT22;13339;50.840;4.346;2024-02-23T05:59:42;8.30;99.90
25410;DHT22;13339;50.840;4.346;2024-02-23T06:02:08;8.40;99.90
25410;DHT22;13339;50.840;4.346;2024-02-23T06:04:34;8.50;99.90
25410;DHT22;13339;50.840;4.346;2024-02-23T06:06:59;8.50;99.90
25410;DHT22;13339;50.840;4.346;2024-02-23T06:09:25;8.50;99.90
25410;DHT22;13339;50.840;4.346;2024-02-23T06:11:50;8.50;99.90
25410;DHT22;13339;50.840;4.346;2024-02-23T06:14:17;8.50;99.90
25410;DHT22;13339;50.840;4.346;2024-02-23T06:16:43;8.50;99.90
25410;DHT22;13339;50.840;4.346;2024-02-23T06:19:08;8.40;99.90
25410;DHT22;13339;50.840;4.346;2024-02-23T06:21:34;8.40;99.90
25410;DHT22;13339;50.840;4.346;2024-02-23T06:23:59;8.30;99.90
25410;DHT22;13339;50.840;4.346;2024-02-23T06:26:25;8.40;99.90
25410;DHT22;13339;50.840;4.346;2024-02-23T06:28:50;8.50;99.90
25410;DHT22;13339;50.840;4.346;2024-02-23T06:31:16;8.50;99.90
25410;DHT22;13339;50.840;4.346;2024-02-23T06:33:42;8.50;99.90
25410;DHT22;13339;50.840;4.346;2024-02-23T06:36:09;8.50;99.90
25410;DHT22;13339;50.840;4.346;2024-02-23T06:38:35;8.50;99.90
25410;DHT22;13339;50.840;4.346;2024-02-23T06:41:00;8.50;99.90
25410;DHT22;13339;50.840;4.346;2024-02-23T06:43:26;8.50;99.90
25410;DHT22;13339;50.840;4.346;2024-02-23T06:45:52;8.40;99.90
25410;DHT22;13339;50.840;4.346;2024-02-23T06:48:17;8.40;99.90
25410;DHT22;13339;50.840;4.346;2024-02-23T06:50:43;8.50;99.90
25410;DHT22;13339;50.840;4.346;2024-02-23T06:53:09;8.60;99.90
25410;DHT22;13339;50.840;4.346;2024-02-23T06:55:34;8.60;99.90
25410;DHT22;13339;50.840;4.346;2024-02-23T06:58:01;8.60;99.90
25410;DHT22;13339;50.840;4.346;2024-02-23T07:00:26;8.60;99.90
25410;DHT22;13339;50.840;4.346;2024-02-23T07:02:52;8.60;99.90
25410;DHT22;13339;50.840;4.346;2024-02-23T07:05:18;8.70;99.90
25410;DHT22;13339;50.840;4.346;2024-02-23T07:07:43;8.80;99.90
25410;DHT22;13339;50.840;4.346;2024-02-23T07:10:09;8.90;99.90
25410;DHT22;13339;50.840;4.346;2024-02-23T07:12:36;8.80;99.90
25410;DHT22;13339;50.840;4.346;2024-02-23T07:15:01;8.90;99.90
25410;DHT22;13339;50.840;4.346;2024-02-23T07:17:27;8.90;99.90
25410;DHT22;13339;50.840;4.346;2024-02-23T07:19:53;8.80;99.90
25410;DHT22;13339;50.840;4.346;2024-02-23T07:22:19;8.80;99.90
25410;DHT22;13339;50.840;4.346;2024-02-23T07:24:45;8.80;99.90
25410;DHT22;13339;50.840;4.346;2024-02-23T07:27:11;9.00;99.90
25410;DHT22;13339;50.840;4.346;2024-02-23T07:29:37;9.10;99.90
25410;DHT22;13339;50.840;4.346;2024-02-23T07:32:02;9.20;99.90
25410;DHT22;13339;50.840;4.346;2024-02-23T07:34:29;9.20;99.90
25410;DHT22;13339;50.840;4.346;2024-02-23T07:36:55;9.20;99.90
25410;DHT22;13339;50.840;4.346;2024-02-23T07:39:21;9.00;99.90
25410;DHT22;13339;50.840;4.346;2024-02-23T07:41:47;9.10;99.90
25410;DHT22;13339;50.840;4.346;2024-02-23T07:44:13;9.30;99.90
25410;DHT22;13339;50.840;4.346;2024-02-23T07:46:39;9.40;99.90
25410;DHT22;13339;50.840;4.346;2024-02-23T07:49:05;9.50;99.90
25410;DHT22;13339;50.840;4.346;2024-02-23T07:51:31;9.50;99.90
25410;DHT22;13339;50.840;4.346;2024-02-23T07:53:57;9.50;99.90
25410;DHT22;13339;50.840;4.346;2024-02-23T07:56:23;9.50;99.90
25410;DHT22;13339;50.840;4.346;2024-02-23T07:58:48;9.40;99.90
25410;DHT22;13339;50.840;4.346;2024-02-23T08:01:14;9.40;99.90
25410;DHT22;13339;50.840;4.346;2024-02-23T08:03:40;9.40;99.90
25410;DHT22;13339;50.840;4.346;2024-02-23T08:06:06;9.20;99.90
25410;DHT22;13339;50.840;4.346;2024-02-23T08:08:31;9.20;99.90
25410;DHT22;13339;50.840;4.346;2024-02-23T08:11:01;9.10;99.90
25410;DHT22;13339;50.840;4.346;2024-02-23T08:13:27;9.20;99.90
25410;DHT22;13339;50.840;4.346;2024-02-23T08:15:52;9.10;99.90
25410;DHT22;13339;50.840;4.346;2024-02-23T08:18:18;9.10;99.90
25410;DHT22;13339;50.840;4.346;2024-02-23T08:20:44;9.00;99.90
25410;DHT22;13339;50.840;4.346;2024-02-23T08:23:09;9.00;99.90
25410;DHT22;13339;50.840;4.346;2024-02-23T08:25:36;9.00;99.90
25410;DHT22;13339;50.840;4.346;2024-02-23T08:28:02;9.00;99.90
25410;DHT22;13339;50.840;4.346;2024-02-23T08:30:27;8.90;99.90
25410;DHT22;13339;50.840;4.346;2024-02-23T08:32:53;9.00;99.90
25410;DHT22;13339;50.840;4.346;2024-02-23T08:35:19;8.90;99.90
25410;DHT22;13339;50.840;4.346;2024-02-23T08:37:44;8.90;99.90
25410;DHT22;13339;50.840;4.346;2024-02-23T08:40:11;9.00;99.90
25410;DHT22;13339;50.840;4.346;2024-02-23T08:42:37;9.00;99.90
25410;DHT22;13339;50.840;4.346;2024-02-23T08:45:03;9.00;99.90
25410;DHT22;13339;50.840;4.346;2024-02-23T08:47:31;9.00;99.90
25410;DHT22;13339;50.840;4.346;2024-02-23T08:50:01;9.10;99.90
25410;DHT22;13339;50.840;4.346;2024-02-23T08:52:27;9.10;99.90
25410;DHT22;13339;50.840;4.346;2024-02-23T08:54:52;9.20;99.90
25410;DHT22;13339;50.840;4.346;2024-02-23T08:57:18;9.10;99.90
25410;DHT22;13339;50.840;4.346;2024-02-23T08:59:46;9.00;99.90
25410;DHT22;13339;50.840;4.346;2024-02-23T09:02:12;9.00;99.90
25410;DHT22;13339;50.840;4.346;2024-02-23T09:04:37;8.90;99.90
25410;DHT22;13339;50.840;4.346;2024-02-23T09:07:03;8.80;99.90
25410;DHT22;13339;50.840;4.346;2024-02-23T09:09:29;8.80;99.90
25410;DHT22;13339;50.840;4.346;2024-02-23T09:11:55;8.80;99.90
25410;DHT22;13339;50.840;4.346;2024-02-23T09:14:21;8.80;99.90
25410;DHT22;13339;50.840;4.346;2024-02-23T09:16:46;8.80;99.90
25410;DHT22;13339;50.840;4.346;2024-02-23T09:19:16;8.80;99.90
25410;DHT22;13339;50.840;4.346;2024-02-23T09:21:41;8.70;99.90
25410;DHT22;13339;50.840;4.346;2024-02-23T09:24:07;8.70;99.90
25410;DHT22;13339;50.840;4.346;2024-02-23T09:26:33;8.80;99.90
25410;DHT22;13339;50.840;4.346;2024-02-23T09:28:58;8.90;99.90
25410;DHT22;13339;50.840;4.346;2024-02-23T09:31:24;9.00;99.90
25410;DHT22;13339;50.840;4.346;2024-02-23T09:33:49;9.00;99.90
25410;DHT22;13339;50.840;4.346;2024-02-23T09:36:17;9.20;99.90
25410;DHT22;13339;50.840;4.346;2024-02-23T09:38:43;9.30;99.90
25410;DHT22;13339;50.840;4.346;2024-02-23T09:41:21;9.30;99.90
25410;DHT22;13339;50.840;4.346;2024-02-23T09:43:47;9.40;99.90
25410;DHT22;13339;50.840;4.346;2024-02-23T09:46:14;9.50;99.90
25410;DHT22;13339;50.840;4.346;2024-02-23T09:48:44;9.50;99.90
25410;DHT22;13339;50.840;4.346;2024-02-23T09:51:13;9.60;99.90
25410;DHT22;13339;50.840;4.346;2024-02-23T09:53:41;9.60;99.90
25410;DHT22;13339;50.840;4.346;2024-02-23T09:56:08;9.70;99.90
25410;DHT22;13339;50.840;4.346;2024-02-23T09:58:37;9.70;99.90
25410;DHT22;13339;50.840;4.346;2024-02-23T10:01:04;9.80;99.90
25410;DHT22;13339;50.840;4.346;2024-02-23T10:03:30;9.70;99.90
25410;DHT22;13339;50.840;4.346;2024-02-23T10:05:59;9.80;99.90
25410;DHT22;13339;50.840;4.346;2024-02-23T10:08:27;9.80;99.90
25410;DHT22;13339;50.840;4.346;2024-02-23T10:10:54;9.70;99.90
25410;DHT22;13339;50.840;4.346;2024-02-23T10:13:20;9.70;99.90
25410;DHT22;13339;50.840;4.346;2024-02-23T10:15:47;9.80;99.90
25410;DHT22;13339;50.840;4.346;2024-02-23T10:18:12;9.80;99.90
25410;DHT22;13339;50.840;4.346;2024-02-23T10:20:39;10.00;99.90
25410;DHT22;13339;50.840;4.346;2024-02-23T10:23:05;10.20;99.90
25410;DHT22;13339;50.840;4.346;2024-02-23T10:25:33;10.40;99.90
25410;DHT22;13339;50.840;4.346;2024-02-23T10:28:04;10.40;99.90
25410;DHT22;13339;50.840;4.346;2024-02-23T10:30:30;10.30;99.90
25410;DHT22;13339;50.840;4.346;2024-02-23T10:32:57;10.30;99.90
25410;DHT22;13339;50.840;4.346;2024-02-23T10:35:24;10.30;99.90
25410;DHT22;13339;50.840;4.346;2024-02-23T10:37:51;10.40;99.90
25410;DHT22;13339;50.840;4.346;2024-02-23T10:40:19;10.30;99.90
25410;DHT22;13339;50.840;4.346;2024-02-23T10:42:46;10.30;99.90
25410;DHT22;13339;50.840;4.346;2024-02-23T10:45:18;10.40;99.90
25410;DHT22;13339;50.840;4.346;2024-02-23T10:47:44;10.50;99.90
25410;DHT22;13339;50.840;4.346;2024-02-23T10:50:10;10.60;99.90
25410;DHT22;13339;50.840;4.346;2024-02-23T10:52:41;10.70;99.90
25410;DHT22;13339;50.840;4.346;2024-02-23T10:55:09;10.80;99.90
25410;DHT22;13339;50.840;4.346;2024-02-23T10:57:35;10.70;99.90
25410;DHT22;13339;50.840;4.346;2024-02-23T11:00:02;10.60;99.90
25410;DHT22;13339;50.840;4.346;2024-02-23T11:02:32;10.60;99.90
25410;DHT22;13339;50.840;4.346;2024-02-23T11:04:58;10.70;99.90
25410;DHT22;13339;50.840;4.346;2024-02-23T11:07:24;10.90;99.90
25410;DHT22;13339;50.840;4.346;2024-02-23T11:09:58;11.00;99.90
25410;DHT22;13339;50.840;4.346;2024-02-23T11:12:25;11.10;99.90
25410;DHT22;13339;50.840;4.346;2024-02-23T11:14:51;11.20;99.90
25410;DHT22;13339;50.840;4.346;2024-02-23T11:17:22;11.20;99.90
25410;DHT22;13339;50.840;4.346;2024-02-23T11:19:50;11.30;99.90
25410;DHT22;13339;50.840;4.346;2024-02-23T11:22:24;11.30;99.90
25410;DHT22;13339;50.840;4.346;2024-02-23T11:24:51;11.00;99.90
25410;DHT22;13339;50.840;4.346;2024-02-23T11:27:17;10.80;99.90
25410;DHT22;13339;50.840;4.346;2024-02-23T11:29:45;10.80;99.90
25410;DHT22;13339;50.840;4.346;2024-02-23T11:32:18;10.80;99.90
25410;DHT22;13339;50.840;4.346;2024-02-23T11:34:56;10.90;99.90
25410;DHT22;13339;50.840;4.346;2024-02-23T11:37:22;11.00;99.90
25410;DHT22;13339;50.840;4.346;2024-02-23T11:39:48;11.00;99.90
25410;DHT22;13339;50.840;4.346;2024-02-23T11:42:14;10.90;99.90
25410;DHT22;13339;50.840;4.346;2024-02-23T11:44:40;11.00;99.90
25410;DHT22;13339;50.840;4.346;2024-02-23T11:47:07;10.90;99.90
25410;DHT22;13339;50.840;4.346;2024-02-23T11:49:33;11.00;99.90
25410;DHT22;13339;50.840;4.346;2024-02-23T11:51:58;10.90;99.90
25410;DHT22;13339;50.840;4.346;2024-02-23T11:54:24;10.80;99.90
25410;DHT22;13339;50.840;4.346;2024-02-23T11:56:50;10.90;99.90
25410;DHT22;13339;50.840;4.346;2024-02-23T11:59:21;10.90;99.90
25410;DHT22;13339;50.840;4.346;2024-02-23T12:01:47;11.00;99.90
25410;DHT22;13339;50.840;4.346;2024-02-23T12:04:15;11.10;99.90
25410;DHT22;13339;50.840;4.346;2024-02-23T12:06:42;11.20;99.90
25410;DHT22;13339;50.840;4.346;2024-02-23T12:09:08;11.10;99.90
25410;DHT22;13339;50.840;4.346;2024-02-23T12:11:34;11.20;99.90
25410;DHT22;13339;50.840;4.346;2024-02-23T12:14:01;11.30;99.90
25410;DHT22;13339;50.840;4.346;2024-02-23T12:16:33;11.30;99.90
25410;DHT22;13339;50.840;4.346;2024-02-23T12:19:01;11.40;99.90
25410;DHT22;13339;50.840;4.346;2024-02-23T12:21:26;11.50;99.90
25410;DHT22;13339;50.840;4.346;2024-02-23T12:23:52;11.60;99.90
25410;DHT22;13339;50.840;4.346;2024-02-23T12:26:18;11.60;99.90
25410;DHT22;13339;50.840;4.346;2024-02-23T12:28:44;11.60;99.90
25410;DHT22;13339;50.840;4.346;2024-02-23T12:31:11;11.60;99.90
25410;DHT22;13339;50.840;4.346;2024-02-23T12:33:40;11.50;99.90
25410;DHT22;13339;50.840;4.346;2024-02-23T12:36:07;11.40;99.90
25410;DHT22;13339;50.840;4.346;2024-02-23T12:38:33;11.50;99.90
25410;DHT22;13339;50.840;4.346;2024-02-23T12:41:00;11.60;99.90
25410;DHT22;13339;50.840;4.346;2024-02-23T12:43:26;11.70;99.90
25410;DHT22;13339;50.840;4.346;2024-02-23T12:45:55;11.80;99.90
25410;DHT22;13339;50.840;4.346;2024-02-23T12:48:21;11.90;99.90
25410;DHT22;13339;50.840;4.346;2024-02-23T12:50:48;11.80;99.90
25410;DHT22;13339;50.840;4.346;2024-02-23T12:53:53;11.80;99.90
25410;DHT22;13339;50.840;4.346;2024-02-23T12:56:19;11.80;99.90
25410;DHT22;13339;50.840;4.346;2024-02-23T12:58:46;11.80;99.90
25410;DHT22;13339;50.840;4.346;2024-02-23T13:01:12;11.70;99.90
25410;DHT22;13339;50.840;4.346;2024-02-23T13:03:39;11.50;99.90
25410;DHT22;13339;50.840;4.346;2024-02-23T13:06:08;11.50;99.90
25410;DHT22;13339;50.840;4.346;2024-02-23T13:08:34;11.50;99.90
25410;DHT22;13339;50.840;4.346;2024-02-23T13:11:00;11.50;99.90
25410;DHT22;13339;50.840;4.346;2024-02-23T13:13:26;11.50;99.90
25410;DHT22;13339;50.840;4.346;2024-02-23T13:15:53;11.60;99.90
25410;DHT22;13339;50.840;4.346;2024-02-23T13:18:19;11.40;99.90
25410;DHT22;13339;50.840;4.346;2024-02-23T13:20:45;11.40;99.90
25410;DHT22;13339;50.840;4.346;2024-02-23T13:23:11;11.40;99.90
25410;DHT22;13339;50.840;4.346;2024-02-23T13:25:39;11.40;99.90
25410;DHT22;13339;50.840;4.346;2024-02-23T13:28:05;11.40;99.90
25410;DHT22;13339;50.840;4.346;2024-02-23T13:30:32;11.50;99.90
25410;DHT22;13339;50.840;4.346;2024-02-23T13:32:58;11.60;99.90
25410;DHT22;13339;50.840;4.346;2024-02-23T13:35:23;11.60;99.90
25410;DHT22;13339;50.840;4.346;2024-02-23T13:37:49;11.60;99.90
25410;DHT22;13339;50.840;4.346;2024-02-23T13:40:15;11.70;99.90
25410;DHT22;13339;50.840;4.346;2024-02-23T13:42:41;11.80;99.90
25410;DHT22;13339;50.840;4.346;2024-02-23T13:45:07;11.80;99.90
25410;DHT22;13339;50.840;4.346;2024-02-23T13:47:34;11.70;99.90
25410;DHT22;13339;50.840;4.346;2024-02-23T13:50:03;11.80;99.90
25410;DHT22;13339;50.840;4.346;2024-02-23T13:52:29;11.80;99.90
25410;DHT22;13339;50.840;4.346;2024-02-23T13:54:55;11.70;99.90
25410;DHT22;13339;50.840;4.346;2024-02-23T13:57:21;11.80;99.90
25410;DHT22;13339;50.840;4.346;2024-02-23T13:59:47;11.70;99.90
25410;DHT22;13339;50.840;4.346;2024-02-23T14:02:13;11.80;99.90
25410;DHT22;13339;50.840;4.346;2024-02-23T14:04:39;11.90;99.90
25410;DHT22;13339;50.840;4.346;2024-02-23T14:07:05;11.80;99.90
25410;DHT22;13339;50.840;4.346;2024-02-23T14:09:31;11.80;99.90
25410;DHT22;13339;50.840;4.346;2024-02-23T14:11:57;11.80;99.90
25410;DHT22;13339;50.840;4.346;2024-02-23T14:14:23;11.70;99.90
25410;DHT22;13339;50.840;4.346;2024-02-23T14:16:49;11.80;99.90
25410;DHT22;13339;50.840;4.346;2024-02-23T14:19:14;11.80;99.90
25410;DHT22;13339;50.840;4.346;2024-02-23T14:21:40;11.90;99.90
25410;DHT22;13339;50.840;4.346;2024-02-23T14:24:06;11.80;99.90
25410;DHT22;13339;50.840;4.346;2024-02-23T14:26:31;11.80;99.90
25410;DHT22;13339;50.840;4.346;2024-02-23T14:28:58;11.90;99.90
25410;DHT22;13339;50.840;4.346;2024-02-23T14:31:24;11.90;99.90
25410;DHT22;13339;50.840;4.346;2024-02-23T14:33:50;12.00;99.90
25410;DHT22;13339;50.840;4.346;2024-02-23T14:36:17;12.00;99.90
25410;DHT22;13339;50.840;4.346;2024-02-23T14:38:42;12.10;99.90
25410;DHT22;13339;50.840;4.346;2024-02-23T14:41:08;12.10;99.90
25410;DHT22;13339;50.840;4.346;2024-02-23T14:43:35;12.20;99.90
25410;DHT22;13339;50.840;4.346;2024-02-23T14:46:02;12.20;99.90
25410;DHT22;13339;50.840;4.346;2024-02-23T14:48:27;12.30;99.90
25410;DHT22;13339;50.840;4.346;2024-02-23T14:50:53;12.20;99.90
25410;DHT22;13339;50.840;4.346;2024-02-23T14:53:19;12.10;99.90
25410;DHT22;13339;50.840;4.346;2024-02-23T14:55:45;12.10;99.90
25410;DHT22;13339;50.840;4.346;2024-02-23T14:58:12;11.90;99.90
25410;DHT22;13339;50.840;4.346;2024-02-23T15:00:37;12.00;99.90
25410;DHT22;13339;50.840;4.346;2024-02-23T15:03:03;12.00;99.90
25410;DHT22;13339;50.840;4.346;2024-02-23T15:05:29;12.00;99.90
25410;DHT22;13339;50.840;4.346;2024-02-23T15:07:55;12.00;99.90
25410;DHT22;13339;50.840;4.346;2024-02-23T15:10:21;12.00;99.90
25410;DHT22;13339;50.840;4.346;2024-02-23T15:12:46;11.90;99.90
25410;DHT22;13339;50.840;4.346;2024-02-23T15:15:12;11.90;99.90
25410;DHT22;13339;50.840;4.346;2024-02-23T15:17:39;11.90;99.90
25410;DHT22;13339;50.840;4.346;2024-02-23T15:20:07;11.90;99.90
25410;DHT22;13339;50.840;4.346;2024-02-23T15:22:34;11.80;99.90
25410;DHT22;13339;50.840;4.346;2024-02-23T15:24:59;11.70;99.90
25410;DHT22;13339;50.840;4.346;2024-02-23T15:27:25;11.70;99.90
25410;DHT22;13339;50.840;4.346;2024-02-23T15:29:51;11.70;99.90
25410;DHT22;13339;50.840;4.346;2024-02-23T15:32:17;11.80;99.90
25410;DHT22;13339;50.840;4.346;2024-02-23T15:34:42;11.80;99.90